sensor_id;sensor_type;location;lat;lon;timestamp;temperature;humidity
13598;DHT22;38563;54.258;12.574;2024-01-07T00:02:06;-0.10;99.90
13598;DHT22;38563;54.258;12.574;2024-01-07T00:04:33;-0.10;99.90
13598;DHT22;38563;54.258;12.574;2024-01-07T00:07:00;-0.10;99.90
13598;DHT22;38563;54.258;12.574;2024-01-07T00:09:27;-0.10;99.90
13598;DHT22;38563;54.258;12.574;2024-01-07T00:11:55;-0.10;99.90
13598;DHT22;38563;54.258;12.574;2024-01-07T00:14:22;-0.10;99.90
13598;DHT22;38563;54.258;12.574;2024-01-07T00:16:48;-0.10;99.90
13598;DHT22;38563;54.258;12.574;2024-01-07T00:19:16;-0.10;99.90
13598;DHT22;38563;54.258;12.574;2024-01-07T00:21:42;-0.20;99.90
13598;DHT22;38563;54.258;12.574;2024-01-07T00:24:09;-0.20;99.90
13598;DHT22;38563;54.258;12.574;2024-01-07T00:26:36;-0.10;99.90
13598;DHT22;38563;54.258;12.574;2024-01-07T00:29:04;-0.10;99.90
13598;DHT22;38563;54.258;12.574;2024-01-07T00:31:30;-0.20;99.90
13598;DHT22;38563;54.258;12.574;2024-01-07T00:33:57;-0.20;99.90
13598;DHT22;38563;54.258;12.574;2024-01-07T00:36:24;-0.20;99.90
13598;DHT22;38563;54.258;12.574;2024-01-07T00:38:51;-0.20;99.90
13598;DHT22;38563;54.258;12.574;2024-01-07T00:41:17;-0.20;99.90
13598;DHT22;38563;54.258;12.574;2024-01-07T00:43:44;-0.20;99.90
13598;DHT22;38563;54.258;12.574;2024-01-07T00:46:12;-0.20;99.90
13598;DHT22;38563;54.258;12.574;2024-01-07T00:48:39;-0.20;99.90
13598;DHT22;38563;54.258;12.574;2024-01-07T00:51:06;-0.20;99.90
13598;DHT22;38563;54.258;12.574;2024-01-07T00:53:32;-0.20;99.90
13598;DHT22;38563;54.258;12.574;2024-01-07T00:56:00;-0.20;99.90
13598;DHT22;38563;54.258;12.574;2024-01-07T00:58:26;-0.20;99.90
13598;DHT22;38563;54.258;12.574;2024-01-07T01:00:53;-0.20;99.90
13598;DHT22;38563;54.258;12.574;2024-01-07T01:03:21;-0.20;99.90
13598;DHT22;38563;54.258;12.574;2024-01-07T01:05:48;-0.20;99.90
13598;DHT22;38563;54.258;12.574;2024-01-07T01:08:14;-0.20;99.90
13598;DHT22;38563;54.258;12.574;2024-01-07T01:10:42;-0.20;99.90
13598;DHT22;38563;54.258;12.574;2024-01-07T01:13:09;-0.20;99.90
13598;DHT22;38563;54.258;12.574;2024-01-07T01:15:36;-0.20;99.90
13598;DHT22;38563;54.258;12.574;2024-01-07T01:18:03;-0.20;99.90
13598;DHT22;38563;54.258;12.574;2024-01-07T01:20:31;-0.20;99.90
13598;DHT22;38563;54.258;12.574;2024-01-07T01:22:58;-0.30;99.90
13598;DHT22;38563;54.258;12.574;2024-01-07T01:25:25;-0.30;99.90
13598;DHT22;38563;54.258;12.574;2024-01-07T01:27:52;-0.30;99.90
13598;DHT22;38563;54.258;12.574;2024-01-07T01:30:19;-0.30;99.90
13598;DHT22;38563;54.258;12.574;2024-01-07T01:32:46;-0.30;99.90
13598;DHT22;38563;54.258;12.574;2024-01-07T01:35:13;-0.30;99.90
13598;DHT22;38563;54.258;12.574;2024-01-07T01:37:41;-0.30;99.90
13598;DHT22;38563;54.258;12.574;2024-01-07T01:40:09;-0.30;99.90
13598;DHT22;38563;54.258;12.574;2024-01-07T01:42:36;-0.30;99.90
13598;DHT22;38563;54.258;12.574;2024-01-07T01:45:03;-0.30;99.90
13598;DHT22;38563;54.258;12.574;2024-01-07T01:47:30;-0.30;99.90
13598;DHT22;38563;54.258;12.574;2024-01-07T01:49:58;-0.30;99.90
13598;DHT22;38563;54.258;12.574;2024-01-07T01:52:25;-0.30;99.90
13598;DHT22;38563;54.258;12.574;2024-01-07T01:54:54;-0.30;99.90
13598;DHT22;38563;54.258;12.574;2024-01-07T01:57:22;-0.30;99.90
13598;DHT22;38563;54.258;12.574;2024-01-07T01:59:51;-0.30;99.90
13598;DHT22;38563;54.258;12.574;2024-01-07T02:02:18;-0.30;99.90
13598;DHT22;38563;54.258;12.574;2024-01-07T02:04:45;-0.30;99.90
13598;DHT22;38563;54.258;12.574;2024-01-07T02:07:12;-0.30;99.90
13598;DHT22;38563;54.258;12.574;2024-01-07T02:09:41;-0.30;99.90
13598;DHT22;38563;54.258;12.574;2024-01-07T02:12:09;-0.30;99.90
13598;DHT22;38563;54.258;12.574;2024-01-07T02:14:37;-0.30;99.90
13598;DHT22;38563;54.258;12.574;2024-01-07T02:17:04;-0.30;99.90
13598;DHT22;38563;54.258;12.574;2024-01-07T02:19:32;-0.30;99.90
13598;DHT22;38563;54.258;12.574;2024-01-07T02:21:58;-0.30;99.90
13598;DHT22;38563;54.258;12.574;2024-01-07T02:24:26;-0.30;99.90
13598;DHT22;38563;54.258;12.574;2024-01-07T02:26:53;-0.40;99.90
13598;DHT22;38563;54.258;12.574;2024-01-07T02:29:20;-0.40;99.90
13598;DHT22;38563;54.258;12.574;2024-01-07T02:31:47;-0.40;99.90
13598;DHT22;38563;54.258;12.574;2024-01-07T02:34:13;-0.40;99.90
13598;DHT22;38563;54.258;12.574;2024-01-07T02:36:40;-0.50;99.90
13598;DHT22;38563;54.258;12.574;2024-01-07T02:39:07;-0.40;99.90
13598;DHT22;38563;54.258;12.574;2024-01-07T02:41:35;-0.50;99.90
13598;DHT22;38563;54.258;12.574;2024-01-07T02:44:02;-0.40;99.90
13598;DHT22;38563;54.258;12.574;2024-01-07T02:46:28;-0.40;99.90
13598;DHT22;38563;54.258;12.574;2024-01-07T02:48:56;-0.40;99.90
13598;DHT22;38563;54.258;12.574;2024-01-07T02:51:22;-0.40;99.90
13598;DHT22;38563;54.258;12.574;2024-01-07T02:53:49;-0.40;99.90
13598;DHT22;38563;54.258;12.574;2024-01-07T02:56:16;-0.30;99.90
13598;DHT22;38563;54.258;12.574;2024-01-07T02:58:44;-0.30;99.90
13598;DHT22;38563;54.258;12.574;2024-01-07T03:01:11;-0.30;99.90
13598;DHT22;38563;54.258;12.574;2024-01-07T03:03:41;-0.30;99.90
13598;DHT22;38563;54.258;12.574;2024-01-07T03:06:16;-0.30;99.90
13598;DHT22;38563;54.258;12.574;2024-01-07T03:08:47;-0.30;99.90
13598;DHT22;38563;54.258;12.574;2024-01-07T03:11:15;-0.30;99.90
13598;DHT22;38563;54.258;12.574;2024-01-07T03:13:41;-0.30;99.90
13598;DHT22;38563;54.258;12.574;2024-01-07T03:16:19;-0.30;99.90
13598;DHT22;38563;54.258;12.574;2024-01-07T03:18:45;-0.30;99.90
13598;DHT22;38563;54.258;12.574;2024-01-07T03:21:17;-0.30;99.90
13598;DHT22;38563;54.258;12.574;2024-01-07T03:23:44;-0.30;99.90
13598;DHT22;38563;54.258;12.574;2024-01-07T03:26:13;-0.30;99.90
13598;DHT22;38563;54.258;12.574;2024-01-07T03:28:46;-0.30;99.90
13598;DHT22;38563;54.258;12.574;2024-01-07T03:31:19;-0.30;99.90
13598;DHT22;38563;54.258;12.574;2024-01-07T03:33:48;-0.30;99.90
13598;DHT22;38563;54.258;12.574;2024-01-07T03:36:15;-0.30;99.90
13598;DHT22;38563;54.258;12.574;2024-01-07T03:38:43;-0.30;99.90
13598;DHT22;38563;54.258;12.574;2024-01-07T03:41:16;-0.40;99.90
13598;DHT22;38563;54.258;12.574;2024-01-07T03:43:47;-0.40;99.90
13598;DHT22;38563;54.258;12.574;2024-01-07T03:46:13;-0.50;99.90
13598;DHT22;38563;54.258;12.574;2024-01-07T03:48:45;-0.40;99.90
13598;DHT22;38563;54.258;12.574;2024-01-07T03:51:13;-0.40;99.90
13598;DHT22;38563;54.258;12.574;2024-01-07T03:53:43;-0.40;99.90
13598;DHT22;38563;54.258;12.574;2024-01-07T03:56:15;-0.40;99.90
13598;DHT22;38563;54.258;12.574;2024-01-07T03:58:48;-0.40;99.90
13598;DHT22;38563;54.258;12.574;2024-01-07T04:01:18;-0.40;99.90
13598;DHT22;38563;54.258;12.574;2024-01-07T04:03:49;-0.40;99.90
13598;DHT22;38563;54.258;12.574;2024-01-07T04:06:24;-0.30;99.90
13598;DHT22;38563;54.258;12.574;2024-01-07T04:08:51;-0.30;99.90
13598;DHT22;38563;54.258;12.574;2024-01-07T04:11:18;-0.40;99.90
13598;DHT22;38563;54.258;12.574;2024-01-07T04:13:44;-0.40;99.90
13598;DHT22;38563;54.258;12.574;2024-01-07T04:16:20;-0.40;99.90
13598;DHT22;38563;54.258;12.574;2024-01-07T04:18:48;-0.40;99.90
13598;DHT22;38563;54.258;12.574;2024-01-07T04:21:15;-0.50;99.90
13598;DHT22;38563;54.258;12.574;2024-01-07T04:23:42;-0.40;99.90
13598;DHT22;38563;54.258;12.574;2024-01-07T04:26:09;-0.40;99.90
13598;DHT22;38563;54.258;12.574;2024-01-07T04:28:36;-0.50;99.90
13598;DHT22;38563;54.258;12.574;2024-01-07T04:31:02;-0.40;99.90
13598;DHT22;38563;54.258;12.574;2024-01-07T04:33:29;-0.50;99.90
13598;DHT22;38563;54.258;12.574;2024-01-07T04:35:57;-0.50;99.90
13598;DHT22;38563;54.258;12.574;2024-01-07T04:38:25;-0.50;99.90
13598;DHT22;38563;54.258;12.574;2024-01-07T04:40:51;-0.50;99.90
13598;DHT22;38563;54.258;12.574;2024-01-07T04:43:18;-0.50;99.90
13598;DHT22;38563;54.258;12.574;2024-01-07T04:45:45;-0.50;99.90
13598;DHT22;38563;54.258;12.574;2024-01-07T04:48:12;-0.40;99.90
13598;DHT22;38563;54.258;12.574;2024-01-07T04:50:39;-0.40;99.90
13598;DHT22;38563;54.258;12.574;2024-01-07T04:53:08;-0.40;99.90
13598;DHT22;38563;54.258;12.574;2024-01-07T04:55:36;-0.40;99.90
13598;DHT22;38563;54.258;12.574;2024-01-07T04:58:02;-0.40;99.90
13598;DHT22;38563;54.258;12.574;2024-01-07T05:00:30;-0.40;99.90
13598;DHT22;38563;54.258;12.574;2024-01-07T05:02:56;-0.50;99.90
13598;DHT22;38563;54.258;12.574;2024-01-07T05:05:23;-0.60;99.90
13598;DHT22;38563;54.258;12.574;2024-01-07T05:07:50;-0.70;99.90
13598;DHT22;38563;54.258;12.574;2024-01-07T05:10:18;-0.80;99.90
13598;DHT22;38563;54.258;12.574;2024-01-07T05:12:45;-0.90;99.90
13598;DHT22;38563;54.258;12.574;2024-01-07T05:15:16;-1.00;99.90
13598;DHT22;38563;54.258;12.574;2024-01-07T05:17:43;-1.00;99.90
13598;DHT22;38563;54.258;12.574;2024-01-07T05:20:12;-1.20;99.90
13598;DHT22;38563;54.258;12.574;2024-01-07T05:22:42;-1.20;99.90
13598;DHT22;38563;54.258;12.574;2024-01-07T05:25:09;-1.20;99.90
13598;DHT22;38563;54.258;12.574;2024-01-07T05:27:45;-1.30;99.90
13598;DHT22;38563;54.258;12.574;2024-01-07T05:30:25;-1.40;99.90
13598;DHT22;38563;54.258;12.574;2024-01-07T05:35:36;-1.50;99.90
13598;DHT22;38563;54.258;12.574;2024-01-07T05:38:05;-1.40;99.90
13598;DHT22;38563;54.258;12.574;2024-01-07T05:40:50;-1.40;99.90
13598;DHT22;38563;54.258;12.574;2024-01-07T05:43:30;-1.50;99.90
13598;DHT22;38563;54.258;12.574;2024-01-07T05:46:02;-1.50;99.90
13598;DHT22;38563;54.258;12.574;2024-01-07T05:48:29;-1.60;99.90
13598;DHT22;38563;54.258;12.574;2024-01-07T05:51:12;-1.70;99.90
13598;DHT22;38563;54.258;12.574;2024-01-07T05:53:41;-1.70;99.90
13598;DHT22;38563;54.258;12.574;2024-01-07T05:56:11;-1.80;99.90
13598;DHT22;38563;54.258;12.574;2024-01-07T05:58:44;-1.80;99.90
13598;DHT22;38563;54.258;12.574;2024-01-07T06:01:21;-1.80;99.90
13598;DHT22;38563;54.258;12.574;2024-01-07T06:03:56;-1.70;99.90
13598;DHT22;38563;54.258;12.574;2024-01-07T06:06:23;-1.60;99.90
13598;DHT22;38563;54.258;12.574;2024-01-07T06:08:50;-1.60;99.90
13598;DHT22;38563;54.258;12.574;2024-01-07T06:11:17;-1.60;99.90
13598;DHT22;38563;54.258;12.574;2024-01-07T06:13:47;-1.60;99.90
13598;DHT22;38563;54.258;12.574;2024-01-07T06:16:13;-1.60;99.90
13598;DHT22;38563;54.258;12.574;2024-01-07T06:18:40;-1.60;99.90
13598;DHT22;38563;54.258;12.574;2024-01-07T06:21:07;-1.70;99.90
13598;DHT22;38563;54.258;12.574;2024-01-07T06:23:36;-1.80;99.90
13598;DHT22;38563;54.258;12.574;2024-01-07T06:26:10;-1.90;99.90
13598;DHT22;38563;54.258;12.574;2024-01-07T06:28:36;-2.00;99.90
13598;DHT22;38563;54.258;12.574;2024-01-07T06:31:04;-2.00;99.90
13598;DHT22;38563;54.258;12.574;2024-01-07T06:33:31;-2.10;99.90
13598;DHT22;38563;54.258;12.574;2024-01-07T06:35:58;-2.00;99.90
13598;DHT22;38563;54.258;12.574;2024-01-07T06:38:26;-2.00;99.90
13598;DHT22;38563;54.258;12.574;2024-01-07T06:40:52;-1.90;99.90
13598;DHT22;38563;54.258;12.574;2024-01-07T06:43:20;-1.90;99.90
13598;DHT22;38563;54.258;12.574;2024-01-07T06:45:47;-1.80;99.90
13598;DHT22;38563;54.258;12.574;2024-01-07T06:48:15;-1.80;99.90
13598;DHT22;38563;54.258;12.574;2024-01-07T06:50:41;-1.80;99.90
13598;DHT22;38563;54.258;12.574;2024-01-07T06:53:09;-1.80;99.90
13598;DHT22;38563;54.258;12.574;2024-01-07T06:55:36;-1.80;99.90
13598;DHT22;38563;54.258;12.574;2024-01-07T06:58:02;-1.80;99.90
13598;DHT22;38563;54.258;12.574;2024-01-07T07:00:31;-1.80;99.90
13598;DHT22;38563;54.258;12.574;2024-01-07T07:02:58;-1.90;99.90
13598;DHT22;38563;54.258;12.574;2024-01-07T07:05:26;-1.90;99.90
13598;DHT22;38563;54.258;12.574;2024-01-07T07:07:52;-2.00;99.90
13598;DHT22;38563;54.258;12.574;2024-01-07T07:10:19;-1.90;99.90
13598;DHT22;38563;54.258;12.574;2024-01-07T07:12:46;-1.80;99.90
13598;DHT22;38563;54.258;12.574;2024-01-07T07:15:13;-1.60;99.90
13598;DHT22;38563;54.258;12.574;2024-01-07T07:17:42;-1.60;99.90
13598;DHT22;38563;54.258;12.574;2024-01-07T07:20:17;-1.50;99.90
13598;DHT22;38563;54.258;12.574;2024-01-07T07:22:52;-1.40;99.90
13598;DHT22;38563;54.258;12.574;2024-01-07T07:25:22;-1.40;99.90
13598;DHT22;38563;54.258;12.574;2024-01-07T07:27:57;-1.40;99.90
13598;DHT22;38563;54.258;12.574;2024-01-07T07:30:32;-1.30;99.90
13598;DHT22;38563;54.258;12.574;2024-01-07T07:33:02;-1.30;99.90
13598;DHT22;38563;54.258;12.574;2024-01-07T07:35:31;-1.20;99.90
13598;DHT22;38563;54.258;12.574;2024-01-07T07:37:59;-1.20;99.90
13598;DHT22;38563;54.258;12.574;2024-01-07T07:40:25;-1.20;99.90
13598;DHT22;38563;54.258;12.574;2024-01-07T07:42:52;-1.20;99.90
13598;DHT22;38563;54.258;12.574;2024-01-07T07:45:19;-1.20;99.90
13598;DHT22;38563;54.258;12.574;2024-01-07T07:47:46;-1.30;99.90
13598;DHT22;38563;54.258;12.574;2024-01-07T07:50:14;-1.30;99.90
13598;DHT22;38563;54.258;12.574;2024-01-07T07:52:41;-1.40;99.90
13598;DHT22;38563;54.258;12.574;2024-01-07T07:55:10;-1.40;99.90
13598;DHT22;38563;54.258;12.574;2024-01-07T07:57:37;-1.40;99.90
13598;DHT22;38563;54.258;12.574;2024-01-07T08:00:05;-1.50;99.90
13598;DHT22;38563;54.258;12.574;2024-01-07T08:02:32;-1.40;99.90
13598;DHT22;38563;54.258;12.574;2024-01-07T08:05:00;-1.30;99.90
13598;DHT22;38563;54.258;12.574;2024-01-07T08:07:27;-1.20;99.90
13598;DHT22;38563;54.258;12.574;2024-01-07T08:09:59;-1.10;99.90
13598;DHT22;38563;54.258;12.574;2024-01-07T08:12:28;-1.10;99.90
13598;DHT22;38563;54.258;12.574;2024-01-07T08:14:57;-1.00;99.90
13598;DHT22;38563;54.258;12.574;2024-01-07T08:17:24;-0.90;99.90
13598;DHT22;38563;54.258;12.574;2024-01-07T08:19:54;-0.90;99.90
13598;DHT22;38563;54.258;12.574;2024-01-07T08:22:21;-0.90;99.90
13598;DHT22;38563;54.258;12.574;2024-01-07T08:24:47;-0.90;99.90
13598;DHT22;38563;54.258;12.574;2024-01-07T08:27:14;-0.90;99.90
13598;DHT22;38563;54.258;12.574;2024-01-07T08:29:43;-0.90;99.90
13598;DHT22;38563;54.258;12.574;2024-01-07T08:32:13;-0.90;99.90
13598;DHT22;38563;54.258;12.574;2024-01-07T08:34:39;-0.90;99.90
13598;DHT22;38563;54.258;12.574;2024-01-07T08:37:07;-1.00;99.90
13598;DHT22;38563;54.258;12.574;2024-01-07T08:39:34;-1.00;99.90
13598;DHT22;38563;54.258;12.574;2024-01-07T08:42:00;-1.00;99.90
13598;DHT22;38563;54.258;12.574;2024-01-07T08:44:29;-1.00;99.90
13598;DHT22;38563;54.258;12.574;2024-01-07T08:46:57;-1.00;99.90
13598;DHT22;38563;54.258;12.574;2024-01-07T08:49:25;-1.10;99.90
13598;DHT22;38563;54.258;12.574;2024-01-07T08:51:52;-1.00;99.90
13598;DHT22;38563;54.258;12.574;2024-01-07T08:54:19;-1.00;99.90
13598;DHT22;38563;54.258;12.574;2024-01-07T08:56:46;-0.90;99.90
13598;DHT22;38563;54.258;12.574;2024-01-07T08:59:12;-0.90;99.90
13598;DHT22;38563;54.258;12.574;2024-01-07T09:01:39;-0.80;99.90
13598;DHT22;38563;54.258;12.574;2024-01-07T09:04:07;-0.80;99.90
13598;DHT22;38563;54.258;12.574;2024-01-07T09:06:34;-0.70;99.90
13598;DHT22;38563;54.258;12.574;2024-01-07T09:09:02;-0.70;99.90
13598;DHT22;38563;54.258;12.574;2024-01-07T09:11:31;-0.70;99.90
13598;DHT22;38563;54.258;12.574;2024-01-07T09:13:58;-0.70;99.90
13598;DHT22;38563;54.258;12.574;2024-01-07T09:16:25;-0.70;99.90
13598;DHT22;38563;54.258;12.574;2024-01-07T09:18:52;-0.70;99.90
13598;DHT22;38563;54.258;12.574;2024-01-07T09:21:20;-0.70;99.90
13598;DHT22;38563;54.258;12.574;2024-01-07T09:23:48;-0.70;99.90
13598;DHT22;38563;54.258;12.574;2024-01-07T09:26:15;-0.70;99.90
13598;DHT22;38563;54.258;12.574;2024-01-07T09:28:42;-0.70;99.90
13598;DHT22;38563;54.258;12.574;2024-01-07T09:31:09;-0.60;99.90
13598;DHT22;38563;54.258;12.574;2024-01-07T09:33:35;-0.60;99.90
13598;DHT22;38563;54.258;12.574;2024-01-07T09:36:03;-0.50;99.90
13598;DHT22;38563;54.258;12.574;2024-01-07T09:38:31;-0.60;99.90
13598;DHT22;38563;54.258;12.574;2024-01-07T09:40:58;-0.60;99.90
13598;DHT22;38563;54.258;12.574;2024-01-07T09:43:25;-0.70;99.90
13598;DHT22;38563;54.258;12.574;2024-01-07T09:45:53;-0.80;99.90
13598;DHT22;38563;54.258;12.574;2024-01-07T09:48:20;-0.80;99.90
13598;DHT22;38563;54.258;12.574;2024-01-07T09:50:47;-0.90;99.90
13598;DHT22;38563;54.258;12.574;2024-01-07T09:53:16;-0.90;99.90
13598;DHT22;38563;54.258;12.574;2024-01-07T09:55:52;-0.80;99.90
13598;DHT22;38563;54.258;12.574;2024-01-07T09:58:20;-0.80;99.90
13598;DHT22;38563;54.258;12.574;2024-01-07T10:00:46;-0.70;99.90
13598;DHT22;38563;54.258;12.574;2024-01-07T10:03:13;-0.60;99.90
13598;DHT22;38563;54.258;12.574;2024-01-07T10:05:40;-0.60;99.90
13598;DHT22;38563;54.258;12.574;2024-01-07T10:08:07;-0.60;99.90
13598;DHT22;38563;54.258;12.574;2024-01-07T11:34:39;-0.60;99.90
13598;DHT22;38563;54.258;12.574;2024-01-07T11:37:09;-0.60;99.90
13598;DHT22;38563;54.258;12.574;2024-01-07T11:39:36;-0.50;99.90
13598;DHT22;38563;54.258;12.574;2024-01-07T11:42:04;-0.50;99.90
13598;DHT22;38563;54.258;12.574;2024-01-07T11:44:34;-0.50;99.90
13598;DHT22;38563;54.258;12.574;2024-01-07T11:47:01;-0.50;99.90
13598;DHT22;38563;54.258;12.574;2024-01-07T11:49:27;-0.50;99.90
13598;DHT22;38563;54.258;12.574;2024-01-07T11:51:55;-0.50;99.90
13598;DHT22;38563;54.258;12.574;2024-01-07T11:54:22;-0.50;99.90
13598;DHT22;38563;54.258;12.574;2024-01-07T11:56:49;-0.50;99.90
13598;DHT22;38563;54.258;12.574;2024-01-07T11:59:15;-0.50;99.90
13598;DHT22;38563;54.258;12.574;2024-01-07T12:01:42;-0.60;99.90
13598;DHT22;38563;54.258;12.574;2024-01-07T12:04:09;-0.50;99.90
13598;DHT22;38563;54.258;12.574;2024-01-07T12:06:38;-0.60;99.90
13598;DHT22;38563;54.258;12.574;2024-01-07T12:09:06;-0.60;99.90
13598;DHT22;38563;54.258;12.574;2024-01-07T12:11:33;-0.50;99.90
13598;DHT22;38563;54.258;12.574;2024-01-07T12:14:00;-0.50;99.90
13598;DHT22;38563;54.258;12.574;2024-01-07T12:16:29;-0.50;99.90
13598;DHT22;38563;54.258;12.574;2024-01-07T12:18:56;-0.50;99.90
13598;DHT22;38563;54.258;12.574;2024-01-07T12:21:23;-0.50;99.90
13598;DHT22;38563;54.258;12.574;2024-01-07T12:23:50;-0.50;99.90
13598;DHT22;38563;54.258;12.574;2024-01-07T12:26:19;-0.50;99.90
13598;DHT22;38563;54.258;12.574;2024-01-07T12:28:52;-0.50;99.90
13598;DHT22;38563;54.258;12.574;2024-01-07T12:31:19;-0.50;99.90
13598;DHT22;38563;54.258;12.574;2024-01-07T12:33:46;-0.50;99.90
13598;DHT22;38563;54.258;12.574;2024-01-07T12:36:13;-0.50;99.90
13598;DHT22;38563;54.258;12.574;2024-01-07T12:38:40;-0.50;99.90
13598;DHT22;38563;54.258;12.574;2024-01-07T12:41:07;-0.50;99.90
13598;DHT22;38563;54.258;12.574;2024-01-07T12:43:36;-0.40;99.90
13598;DHT22;38563;54.258;12.574;2024-01-07T12:46:03;-0.40;99.90
13598;DHT22;38563;54.258;12.574;2024-01-07T12:48:31;-0.40;99.90
13598;DHT22;38563;54.258;12.574;2024-01-07T12:50:58;-0.40;99.90
13598;DHT22;38563;54.258;12.574;2024-01-07T12:53:25;-0.40;99.90
13598;DHT22;38563;54.258;12.574;2024-01-07T12:55:52;-0.40;99.90
13598;DHT22;38563;54.258;12.574;2024-01-07T12:58:19;-0.40;99.90
13598;DHT22;38563;54.258;12.574;2024-01-07T13:00:47;-0.40;99.90
13598;DHT22;38563;54.258;12.574;2024-01-07T13:03:14;-0.40;99.90
13598;DHT22;38563;54.258;12.574;2024-01-07T13:05:43;-0.50;99.90
13598;DHT22;38563;54.258;12.574;2024-01-07T13:08:11;-0.50;99.90
13598;DHT22;38563;54.258;12.574;2024-01-07T13:10:39;-0.50;99.90
13598;DHT22;38563;54.258;12.574;2024-01-07T13:13:05;-0.50;99.90
13598;DHT22;38563;54.258;12.574;2024-01-07T13:15:32;-0.50;99.90
13598;DHT22;38563;54.258;12.574;2024-01-07T13:18:00;-0.50;99.90
13598;DHT22;38563;54.258;12.574;2024-01-07T13:20:28;-0.50;99.90
13598;DHT22;38563;54.258;12.574;2024-01-07T13:22:54;-0.60;99.90
13598;DHT22;38563;54.258;12.574;2024-01-07T13:25:21;-0.60;99.90
13598;DHT22;38563;54.258;12.574;2024-01-07T13:27:48;-0.50;99.90
13598;DHT22;38563;54.258;12.574;2024-01-07T13:30:15;-0.60;99.90
13598;DHT22;38563;54.258;12.574;2024-01-07T13:32:42;-0.50;99.90
13598;DHT22;38563;54.258;12.574;2024-01-07T13:35:10;-0.60;99.90
13598;DHT22;38563;54.258;12.574;2024-01-07T13:37:38;-0.50;99.90
13598;DHT22;38563;54.258;12.574;2024-01-07T13:40:08;-0.60;99.90
13598;DHT22;38563;54.258;12.574;2024-01-07T13:42:36;-0.60;99.90
13598;DHT22;38563;54.258;12.574;2024-01-07T13:45:03;-0.60;99.90
13598;DHT22;38563;54.258;12.574;2024-01-07T13:47:30;-0.60;99.90
13598;DHT22;38563;54.258;12.574;2024-01-07T13:49:57;-0.60;99.90
13598;DHT22;38563;54.258;12.574;2024-01-07T13:52:25;-0.70;99.90
13598;DHT22;38563;54.258;12.574;2024-01-07T13:54:55;-0.70;99.90
13598;DHT22;38563;54.258;12.574;2024-01-07T13:57:22;-0.80;99.90
13598;DHT22;38563;54.258;12.574;2024-01-07T13:59:49;-0.70;99.90
13598;DHT22;38563;54.258;12.574;2024-01-07T14:02:16;-0.80;99.90
13598;DHT22;38563;54.258;12.574;2024-01-07T14:04:44;-0.70;99.90
13598;DHT22;38563;54.258;12.574;2024-01-07T14:07:11;-0.70;99.90
13598;DHT22;38563;54.258;12.574;2024-01-07T14:09:39;-0.70;99.90
13598;DHT22;38563;54.258;12.574;2024-01-07T14:12:06;-0.70;99.90
13598;DHT22;38563;54.258;12.574;2024-01-07T14:14:33;-0.70;99.90
13598;DHT22;38563;54.258;12.574;2024-01-07T14:17:00;-0.70;99.90
13598;DHT22;38563;54.258;12.574;2024-01-07T14:19:26;-0.70;99.90
13598;DHT22;38563;54.258;12.574;2024-01-07T14:21:53;-0.70;99.90
13598;DHT22;38563;54.258;12.574;2024-01-07T14:24:20;-0.70;99.90
13598;DHT22;38563;54.258;12.574;2024-01-07T14:26:48;-0.70;99.90
13598;DHT22;38563;54.258;12.574;2024-01-07T14:29:15;-0.70;99.90
13598;DHT22;38563;54.258;12.574;2024-01-07T14:31:41;-0.70;99.90
13598;DHT22;38563;54.258;12.574;2024-01-07T14:34:08;-0.70;99.90
13598;DHT22;38563;54.258;12.574;2024-01-07T14:36:35;-0.70;99.90
13598;DHT22;38563;54.258;12.574;2024-01-07T14:39:05;-0.70;99.90
13598;DHT22;38563;54.258;12.574;2024-01-07T14:41:32;-0.70;99.90
13598;DHT22;38563;54.258;12.574;2024-01-07T14:44:00;-0.60;99.90
13598;DHT22;38563;54.258;12.574;2024-01-07T14:46:27;-0.70;99.90
13598;DHT22;38563;54.258;12.574;2024-01-07T14:48:54;-0.70;99.90
13598;DHT22;38563;54.258;12.574;2024-01-07T14:51:20;-0.70;99.90
13598;DHT22;38563;54.258;12.574;2024-01-07T14:53:47;-0.60;99.90
13598;DHT22;38563;54.258;12.574;2024-01-07T14:56:14;-0.70;99.90
13598;DHT22;38563;54.258;12.574;2024-01-07T14:58:41;-0.70;99.90
13598;DHT22;38563;54.258;12.574;2024-01-07T15:01:09;-0.60;99.90
13598;DHT22;38563;54.258;12.574;2024-01-07T15:03:35;-0.70;99.90
13598;DHT22;38563;54.258;12.574;2024-01-07T15:06:03;-0.70;99.90
13598;DHT22;38563;54.258;12.574;2024-01-07T15:08:29;-0.70;99.90
13598;DHT22;38563;54.258;12.574;2024-01-07T15:10:56;-0.70;99.90
13598;DHT22;38563;54.258;12.574;2024-01-07T15:13:23;-0.70;99.90
13598;DHT22;38563;54.258;12.574;2024-01-07T15:15:49;-0.70;99.90
13598;DHT22;38563;54.258;12.574;2024-01-07T15:18:17;-0.70;99.90
13598;DHT22;38563;54.258;12.574;2024-01-07T15:20:44;-0.60;99.90
13598;DHT22;38563;54.258;12.574;2024-01-07T15:23:11;-0.60;99.90
13598;DHT22;38563;54.258;12.574;2024-01-07T15:25:38;-0.50;99.90
13598;DHT22;38563;54.258;12.574;2024-01-07T15:28:05;-0.40;99.90
13598;DHT22;38563;54.258;12.574;2024-01-07T15:30:31;-0.40;99.90
13598;DHT22;38563;54.258;12.574;2024-01-07T15:32:58;-0.30;99.90
13598;DHT22;38563;54.258;12.574;2024-01-07T15:35:26;-0.30;99.90
13598;DHT22;38563;54.258;12.574;2024-01-07T15:37:53;-0.30;99.90
13598;DHT22;38563;54.258;12.574;2024-01-07T15:40:20;-0.20;99.90
13598;DHT22;38563;54.258;12.574;2024-01-07T15:42:48;-0.30;99.90
13598;DHT22;38563;54.258;12.574;2024-01-07T15:45:15;-0.30;99.90
13598;DHT22;38563;54.258;12.574;2024-01-07T15:47:42;-0.30;99.90
13598;DHT22;38563;54.258;12.574;2024-01-07T15:50:09;-0.30;99.90
13598;DHT22;38563;54.258;12.574;2024-01-07T15:52:37;-0.30;99.90
13598;DHT22;38563;54.258;12.574;2024-01-07T15:55:04;-0.40;99.90
13598;DHT22;38563;54.258;12.574;2024-01-07T15:57:31;-0.40;99.90
13598;DHT22;38563;54.258;12.574;2024-01-07T15:59:58;-0.40;99.90
13598;DHT22;38563;54.258;12.574;2024-01-07T16:02:25;-0.40;99.90
13598;DHT22;38563;54.258;12.574;2024-01-07T16:04:53;-0.50;99.90
13598;DHT22;38563;54.258;12.574;2024-01-07T16:07:19;-0.50;99.90
13598;DHT22;38563;54.258;12.574;2024-01-07T16:09:47;-0.50;99.90
13598;DHT22;38563;54.258;12.574;2024-01-07T17:08:59;-0.80;99.90
13598;DHT22;38563;54.258;12.574;2024-01-07T17:11:29;-0.80;99.90
13598;DHT22;38563;54.258;12.574;2024-01-07T17:14:01;-0.80;99.90
13598;DHT22;38563;54.258;12.574;2024-01-07T17:16:38;-0.80;99.90
13598;DHT22;38563;54.258;12.574;2024-01-07T17:19:22;-0.80;99.90
13598;DHT22;38563;54.258;12.574;2024-01-07T17:24:37;-0.80;99.90
13598;DHT22;38563;54.258;12.574;2024-01-07T17:27:09;-0.80;99.90
13598;DHT22;38563;54.258;12.574;2024-01-07T17:29:36;-0.90;99.90
13598;DHT22;38563;54.258;12.574;2024-01-07T17:32:03;-0.90;99.90
13598;DHT22;38563;54.258;12.574;2024-01-07T17:34:30;-0.90;99.90
13598;DHT22;38563;54.258;12.574;2024-01-07T17:36:57;-0.90;99.90
13598;DHT22;38563;54.258;12.574;2024-01-07T17:39:24;-0.90;99.90
13598;DHT22;38563;54.258;12.574;2024-01-07T17:41:52;-1.00;99.90
13598;DHT22;38563;54.258;12.574;2024-01-07T17:44:18;-1.00;99.90
13598;DHT22;38563;54.258;12.574;2024-01-07T17:46:45;-1.00;99.90